sensor_id;sensor_type;location;lat;lon;timestamp;P1;durP1;ratioP1;P2;durP2;ratioP2
85056;SDS011;75393;49.516;8.662;2024-03-07T00:01:54;5.28;;;4.00;;
85056;SDS011;75393;49.516;8.662;2024-03-07T00:04:20;5.00;;;3.58;;
85056;SDS011;75393;49.516;8.662;2024-03-07T00:06:52;4.45;;;3.25;;
85056;SDS011;75393;49.516;8.662;2024-03-07T00:09:18;5.72;;;3.88;;
85056;SDS011;75393;49.516;8.662;2024-03-07T00:11:43;4.22;;;3.40;;
85056;SDS011;75393;49.516;8.662;2024-03-07T00:14:09;5.22;;;3.13;;
85056;SDS011;75393;49.516;8.662;2024-03-07T00:16:35;5.00;;;3.55;;
85056;SDS011;75393;49.516;8.662;2024-03-07T00:19:00;4.97;;;2.97;;
85056;SDS011;75393;49.516;8.662;2024-03-07T00:21:26;4.30;;;3.30;;
85056;SDS011;75393;49.516;8.662;2024-03-07T00:23:51;4.28;;;3.83;;
85056;SDS011;75393;49.516;8.662;2024-03-07T00:26:17;4.32;;;3.30;;
85056;SDS011;75393;49.516;8.662;2024-03-07T00:28:42;4.25;;;3.75;;
85056;SDS011;75393;49.516;8.662;2024-03-07T00:31:08;5.55;;;3.60;;
85056;SDS011;75393;49.516;8.662;2024-03-07T00:33:34;4.63;;;3.43;;
85056;SDS011;75393;49.516;8.662;2024-03-07T00:35:59;5.20;;;3.63;;
85056;SDS011;75393;49.516;8.662;2024-03-07T00:38:31;4.93;;;3.58;;
85056;SDS011;75393;49.516;8.662;2024-03-07T00:41:03;3.73;;;3.33;;
85056;SDS011;75393;49.516;8.662;2024-03-07T00:43:29;4.13;;;3.00;;
85056;SDS011;75393;49.516;8.662;2024-03-07T00:45:54;3.78;;;3.13;;
85056;SDS011;75393;49.516;8.662;2024-03-07T00:48:20;3.90;;;3.03;;
85056;SDS011;75393;49.516;8.662;2024-03-07T00:50:45;5.68;;;3.45;;
85056;SDS011;75393;49.516;8.662;2024-03-07T00:53:10;3.83;;;3.13;;
85056;SDS011;75393;49.516;8.662;2024-03-07T00:55:36;4.43;;;3.47;;
85056;SDS011;75393;49.516;8.662;2024-03-07T00:58:01;5.68;;;3.58;;
85056;SDS011;75393;49.516;8.662;2024-03-07T01:00:29;4.80;;;3.35;;
85056;SDS011;75393;49.516;8.662;2024-03-07T01:02:54;5.32;;;3.30;;
85056;SDS011;75393;49.516;8.662;2024-03-07T01:05:21;4.55;;;3.47;;
85056;SDS011;75393;49.516;8.662;2024-03-07T01:07:47;4.28;;;3.42;;
85056;SDS011;75393;49.516;8.662;2024-03-07T01:10:13;5.68;;;3.92;;
85056;SDS011;75393;49.516;8.662;2024-03-07T01:12:39;5.20;;;3.85;;
85056;SDS011;75393;49.516;8.662;2024-03-07T01:15:05;6.10;;;3.95;;
85056;SDS011;75393;49.516;8.662;2024-03-07T01:17:31;4.90;;;3.60;;
85056;SDS011;75393;49.516;8.662;2024-03-07T01:19:57;5.80;;;3.42;;
85056;SDS011;75393;49.516;8.662;2024-03-07T01:22:23;4.35;;;3.53;;
85056;SDS011;75393;49.516;8.662;2024-03-07T01:24:49;6.07;;;3.85;;
85056;SDS011;75393;49.516;8.662;2024-03-07T01:27:15;4.22;;;3.40;;
85056;SDS011;75393;49.516;8.662;2024-03-07T01:29:41;4.30;;;3.67;;
85056;SDS011;75393;49.516;8.662;2024-03-07T01:32:06;4.38;;;3.67;;
85056;SDS011;75393;49.516;8.662;2024-03-07T01:34:32;5.75;;;3.97;;
85056;SDS011;75393;49.516;8.662;2024-03-07T01:36:57;4.55;;;3.63;;
85056;SDS011;75393;49.516;8.662;2024-03-07T01:39:22;4.18;;;3.53;;
85056;SDS011;75393;49.516;8.662;2024-03-07T01:41:48;4.93;;;3.42;;
85056;SDS011;75393;49.516;8.662;2024-03-07T01:44:13;8.88;;;3.97;;
85056;SDS011;75393;49.516;8.662;2024-03-07T01:46:39;5.82;;;3.92;;
85056;SDS011;75393;49.516;8.662;2024-03-07T01:49:06;5.85;;;4.05;;
85056;SDS011;75393;49.516;8.662;2024-03-07T01:51:32;6.78;;;3.85;;
85056;SDS011;75393;49.516;8.662;2024-03-07T01:53:58;5.38;;;3.75;;
85056;SDS011;75393;49.516;8.662;2024-03-07T01:56:24;7.35;;;3.42;;
85056;SDS011;75393;49.516;8.662;2024-03-07T01:58:49;5.65;;;3.60;;
85056;SDS011;75393;49.516;8.662;2024-03-07T02:01:15;5.50;;;3.45;;
85056;SDS011;75393;49.516;8.662;2024-03-07T02:03:41;4.70;;;3.60;;
85056;SDS011;75393;49.516;8.662;2024-03-07T02:06:07;5.28;;;3.90;;
85056;SDS011;75393;49.516;8.662;2024-03-07T02:08:33;5.18;;;3.45;;
85056;SDS011;75393;49.516;8.662;2024-03-07T02:10:59;5.22;;;3.70;;
85056;SDS011;75393;49.516;8.662;2024-03-07T02:13:25;3.85;;;3.08;;
85056;SDS011;75393;49.516;8.662;2024-03-07T02:15:51;4.75;;;3.42;;
85056;SDS011;75393;49.516;8.662;2024-03-07T02:18:20;5.63;;;3.67;;
85056;SDS011;75393;49.516;8.662;2024-03-07T02:20:45;4.22;;;3.25;;
85056;SDS011;75393;49.516;8.662;2024-03-07T02:23:11;4.93;;;3.35;;
85056;SDS011;75393;49.516;8.662;2024-03-07T02:25:37;4.60;;;3.38;;
85056;SDS011;75393;49.516;8.662;2024-03-07T02:28:05;4.13;;;3.72;;
85056;SDS011;75393;49.516;8.662;2024-03-07T02:30:30;4.47;;;3.47;;
85056;SDS011;75393;49.516;8.662;2024-03-07T02:32:57;5.82;;;4.00;;
85056;SDS011;75393;49.516;8.662;2024-03-07T02:35:24;4.47;;;3.60;;
85056;SDS011;75393;49.516;8.662;2024-03-07T02:37:49;4.68;;;3.40;;
85056;SDS011;75393;49.516;8.662;2024-03-07T02:40:15;4.05;;;3.53;;
85056;SDS011;75393;49.516;8.662;2024-03-07T02:42:41;5.78;;;3.80;;
85056;SDS011;75393;49.516;8.662;2024-03-07T02:45:07;4.07;;;3.55;;
85056;SDS011;75393;49.516;8.662;2024-03-07T02:47:32;4.75;;;4.22;;
85056;SDS011;75393;49.516;8.662;2024-03-07T02:49:58;3.97;;;3.42;;
85056;SDS011;75393;49.516;8.662;2024-03-07T02:52:24;4.63;;;3.90;;
85056;SDS011;75393;49.516;8.662;2024-03-07T02:54:49;4.50;;;3.42;;
85056;SDS011;75393;49.516;8.662;2024-03-07T02:57:14;4.72;;;4.25;;
85056;SDS011;75393;49.516;8.662;2024-03-07T02:59:40;4.78;;;3.70;;
85056;SDS011;75393;49.516;8.662;2024-03-07T03:02:07;5.03;;;3.63;;
85056;SDS011;75393;49.516;8.662;2024-03-07T03:04:32;5.22;;;3.67;;
85056;SDS011;75393;49.516;8.662;2024-03-07T03:06:58;4.30;;;3.83;;
85056;SDS011;75393;49.516;8.662;2024-03-07T03:09:24;5.80;;;4.13;;
85056;SDS011;75393;49.516;8.662;2024-03-07T03:11:49;4.88;;;3.50;;
85056;SDS011;75393;49.516;8.662;2024-03-07T03:14:14;5.05;;;3.55;;
85056;SDS011;75393;49.516;8.662;2024-03-07T03:16:43;5.30;;;3.80;;
85056;SDS011;75393;49.516;8.662;2024-03-07T03:19:09;3.95;;;3.33;;
85056;SDS011;75393;49.516;8.662;2024-03-07T03:21:35;5.38;;;3.88;;
85056;SDS011;75393;49.516;8.662;2024-03-07T03:24:00;3.95;;;3.35;;
85056;SDS011;75393;49.516;8.662;2024-03-07T03:26:27;5.68;;;3.80;;
85056;SDS011;75393;49.516;8.662;2024-03-07T03:28:52;4.40;;;3.90;;
85056;SDS011;75393;49.516;8.662;2024-03-07T03:31:18;4.55;;;3.50;;
85056;SDS011;75393;49.516;8.662;2024-03-07T03:33:45;4.35;;;3.67;;
85056;SDS011;75393;49.516;8.662;2024-03-07T03:36:10;5.60;;;3.83;;
85056;SDS011;75393;49.516;8.662;2024-03-07T03:38:36;4.00;;;3.58;;
85056;SDS011;75393;49.516;8.662;2024-03-07T03:41:01;3.72;;;3.35;;
85056;SDS011;75393;49.516;8.662;2024-03-07T03:43:26;5.05;;;4.10;;
85056;SDS011;75393;49.516;8.662;2024-03-07T03:45:52;3.85;;;3.33;;
85056;SDS011;75393;49.516;8.662;2024-03-07T03:48:17;5.13;;;4.10;;
85056;SDS011;75393;49.516;8.662;2024-03-07T03:50:42;6.50;;;3.97;;
85056;SDS011;75393;49.516;8.662;2024-03-07T03:53:08;4.10;;;3.70;;
85056;SDS011;75393;49.516;8.662;2024-03-07T03:55:33;4.85;;;3.83;;
85056;SDS011;75393;49.516;8.662;2024-03-07T03:57:59;4.82;;;3.75;;
85056;SDS011;75393;49.516;8.662;2024-03-07T04:00:24;3.65;;;3.35;;
85056;SDS011;75393;49.516;8.662;2024-03-07T04:02:50;6.03;;;4.32;;
85056;SDS011;75393;49.516;8.662;2024-03-07T04:05:16;4.18;;;3.78;;
85056;SDS011;75393;49.516;8.662;2024-03-07T04:07:44;5.85;;;4.32;;
85056;SDS011;75393;49.516;8.662;2024-03-07T04:10:10;3.92;;;3.50;;
85056;SDS011;75393;49.516;8.662;2024-03-07T04:12:36;4.43;;;3.60;;
85056;SDS011;75393;49.516;8.662;2024-03-07T04:15:03;3.88;;;3.47;;
85056;SDS011;75393;49.516;8.662;2024-03-07T04:17:32;4.03;;;3.60;;
85056;SDS011;75393;49.516;8.662;2024-03-07T04:19:59;3.90;;;3.38;;
85056;SDS011;75393;49.516;8.662;2024-03-07T04:22:25;3.95;;;3.55;;
85056;SDS011;75393;49.516;8.662;2024-03-07T04:24:51;5.07;;;4.05;;
85056;SDS011;75393;49.516;8.662;2024-03-07T04:27:19;4.18;;;3.78;;
85056;SDS011;75393;49.516;8.662;2024-03-07T04:29:46;4.57;;;3.58;;
85056;SDS011;75393;49.516;8.662;2024-03-07T04:32:13;4.72;;;3.78;;
85056;SDS011;75393;49.516;8.662;2024-03-07T04:34:38;4.22;;;3.22;;
85056;SDS011;75393;49.516;8.662;2024-03-07T04:37:04;4.00;;;3.28;;
85056;SDS011;75393;49.516;8.662;2024-03-07T04:39:29;4.53;;;3.75;;
85056;SDS011;75393;49.516;8.662;2024-03-07T04:42:04;4.45;;;3.78;;
85056;SDS011;75393;49.516;8.662;2024-03-07T04:44:31;4.22;;;3.75;;
85056;SDS011;75393;49.516;8.662;2024-03-07T04:46:58;4.57;;;3.90;;
85056;SDS011;75393;49.516;8.662;2024-03-07T04:49:24;4.97;;;4.07;;
85056;SDS011;75393;49.516;8.662;2024-03-07T04:51:52;4.40;;;3.58;;
85056;SDS011;75393;49.516;8.662;2024-03-07T04:54:18;4.03;;;3.45;;
85056;SDS011;75393;49.516;8.662;2024-03-07T04:56:47;3.70;;;3.28;;
85056;SDS011;75393;49.516;8.662;2024-03-07T04:59:14;4.25;;;3.53;;
85056;SDS011;75393;49.516;8.662;2024-03-07T05:01:39;4.40;;;3.90;;
85056;SDS011;75393;49.516;8.662;2024-03-07T05:04:05;5.00;;;3.83;;
85056;SDS011;75393;49.516;8.662;2024-03-07T05:06:31;5.82;;;4.10;;
85056;SDS011;75393;49.516;8.662;2024-03-07T05:08:59;4.43;;;3.65;;
85056;SDS011;75393;49.516;8.662;2024-03-07T05:11:26;4.95;;;3.70;;
85056;SDS011;75393;49.516;8.662;2024-03-07T05:13:51;4.38;;;3.60;;
85056;SDS011;75393;49.516;8.662;2024-03-07T05:16:17;5.07;;;4.13;;
85056;SDS011;75393;49.516;8.662;2024-03-07T05:18:42;4.80;;;3.75;;
85056;SDS011;75393;49.516;8.662;2024-03-07T05:21:08;4.13;;;3.72;;
85056;SDS011;75393;49.516;8.662;2024-03-07T05:23:54;4.22;;;3.42;;
85056;SDS011;75393;49.516;8.662;2024-03-07T05:26:19;3.60;;;3.00;;
85056;SDS011;75393;49.516;8.662;2024-03-07T05:28:45;4.22;;;3.55;;
85056;SDS011;75393;49.516;8.662;2024-03-07T05:31:10;3.25;;;3.00;;
85056;SDS011;75393;49.516;8.662;2024-03-07T05:33:37;4.75;;;4.28;;
85056;SDS011;75393;49.516;8.662;2024-03-07T05:36:03;4.00;;;3.53;;
85056;SDS011;75393;49.516;8.662;2024-03-07T05:38:39;3.97;;;3.58;;
85056;SDS011;75393;49.516;8.662;2024-03-07T05:41:08;3.47;;;2.92;;
85056;SDS011;75393;49.516;8.662;2024-03-07T05:43:40;3.30;;;3.00;;
85056;SDS011;75393;49.516;8.662;2024-03-07T05:46:05;4.05;;;3.65;;
85056;SDS011;75393;49.516;8.662;2024-03-07T05:48:32;3.40;;;3.10;;
85056;SDS011;75393;49.516;8.662;2024-03-07T05:50:58;3.85;;;2.72;;
85056;SDS011;75393;49.516;8.662;2024-03-07T05:53:24;4.35;;;3.22;;
85056;SDS011;75393;49.516;8.662;2024-03-07T05:55:49;3.60;;;3.13;;
85056;SDS011;75393;49.516;8.662;2024-03-07T05:58:14;4.10;;;2.92;;
85056;SDS011;75393;49.516;8.662;2024-03-07T06:00:43;3.75;;;2.92;;
85056;SDS011;75393;49.516;8.662;2024-03-07T06:03:11;3.22;;;2.95;;
85056;SDS011;75393;49.516;8.662;2024-03-07T06:05:38;3.35;;;3.05;;
85056;SDS011;75393;49.516;8.662;2024-03-07T06:08:08;3.05;;;2.75;;
85056;SDS011;75393;49.516;8.662;2024-03-07T06:10:33;3.00;;;2.70;;
85056;SDS011;75393;49.516;8.662;2024-03-07T06:12:59;3.30;;;3.00;;
85056;SDS011;75393;49.516;8.662;2024-03-07T06:15:24;5.00;;;3.60;;
85056;SDS011;75393;49.516;8.662;2024-03-07T06:17:50;3.47;;;3.17;;
85056;SDS011;75393;49.516;8.662;2024-03-07T06:20:15;3.17;;;2.80;;
85056;SDS011;75393;49.516;8.662;2024-03-07T06:22:50;3.63;;;3.20;;
85056;SDS011;75393;49.516;8.662;2024-03-07T06:25:16;4.18;;;3.58;;
85056;SDS011;75393;49.516;8.662;2024-03-07T06:27:48;2.90;;;2.60;;
85056;SDS011;75393;49.516;8.662;2024-03-07T06:30:17;3.92;;;3.00;;
85056;SDS011;75393;49.516;8.662;2024-03-07T06:32:43;3.72;;;2.75;;
85056;SDS011;75393;49.516;8.662;2024-03-07T06:35:08;3.40;;;2.55;;
85056;SDS011;75393;49.516;8.662;2024-03-07T06:37:35;3.15;;;2.85;;
85056;SDS011;75393;49.516;8.662;2024-03-07T06:40:00;3.00;;;2.70;;
85056;SDS011;75393;49.516;8.662;2024-03-07T06:42:30;5.43;;;2.90;;
85056;SDS011;75393;49.516;8.662;2024-03-07T06:44:57;3.25;;;2.95;;
85056;SDS011;75393;49.516;8.662;2024-03-07T06:47:23;3.97;;;3.55;;
85056;SDS011;75393;49.516;8.662;2024-03-07T06:49:48;4.05;;;2.75;;
85056;SDS011;75393;49.516;8.662;2024-03-07T06:52:14;3.10;;;2.70;;
85056;SDS011;75393;49.516;8.662;2024-03-07T06:54:40;3.85;;;2.70;;
85056;SDS011;75393;49.516;8.662;2024-03-07T06:57:05;2.80;;;2.55;;
85056;SDS011;75393;49.516;8.662;2024-03-07T06:59:31;5.28;;;3.55;;
85056;SDS011;75393;49.516;8.662;2024-03-07T07:01:56;6.32;;;3.78;;
85056;SDS011;75393;49.516;8.662;2024-03-07T07:04:23;6.53;;;3.45;;
85056;SDS011;75393;49.516;8.662;2024-03-07T07:06:50;7.97;;;3.58;;
85056;SDS011;75393;49.516;8.662;2024-03-07T07:09:15;10.73;;;3.30;;
85056;SDS011;75393;49.516;8.662;2024-03-07T07:11:43;7.38;;;3.05;;
85056;SDS011;75393;49.516;8.662;2024-03-07T07:14:10;7.57;;;3.38;;
85056;SDS011;75393;49.516;8.662;2024-03-07T07:16:36;5.95;;;3.33;;
85056;SDS011;75393;49.516;8.662;2024-03-07T07:19:06;4.10;;;3.08;;
85056;SDS011;75393;49.516;8.662;2024-03-07T07:21:32;6.93;;;2.88;;
85056;SDS011;75393;49.516;8.662;2024-03-07T07:23:57;6.72;;;3.17;;
85056;SDS011;75393;49.516;8.662;2024-03-07T07:26:23;7.18;;;3.08;;
85056;SDS011;75393;49.516;8.662;2024-03-07T07:28:48;6.82;;;3.83;;
85056;SDS011;75393;49.516;8.662;2024-03-07T07:31:13;5.45;;;3.10;;
85056;SDS011;75393;49.516;8.662;2024-03-07T07:33:39;7.80;;;3.42;;
85056;SDS011;75393;49.516;8.662;2024-03-07T07:36:04;4.88;;;3.35;;
85056;SDS011;75393;49.516;8.662;2024-03-07T07:38:30;6.40;;;3.40;;
85056;SDS011;75393;49.516;8.662;2024-03-07T07:40:56;5.50;;;3.33;;
85056;SDS011;75393;49.516;8.662;2024-03-07T07:43:22;7.45;;;3.30;;
85056;SDS011;75393;49.516;8.662;2024-03-07T07:45:48;4.28;;;2.92;;
85056;SDS011;75393;49.516;8.662;2024-03-07T07:48:13;5.15;;;2.92;;
85056;SDS011;75393;49.516;8.662;2024-03-07T07:50:40;5.13;;;3.05;;
85056;SDS011;75393;49.516;8.662;2024-03-07T07:53:05;7.75;;;3.10;;
85056;SDS011;75393;49.516;8.662;2024-03-07T07:55:34;6.88;;;3.50;;
85056;SDS011;75393;49.516;8.662;2024-03-07T07:57:59;5.13;;;3.35;;
85056;SDS011;75393;49.516;8.662;2024-03-07T08:00:29;6.55;;;3.60;;
85056;SDS011;75393;49.516;8.662;2024-03-07T08:02:56;8.85;;;3.70;;
85056;SDS011;75393;49.516;8.662;2024-03-07T08:05:27;6.72;;;3.97;;
85056;SDS011;75393;49.516;8.662;2024-03-07T08:07:57;9.48;;;4.57;;
85056;SDS011;75393;49.516;8.662;2024-03-07T08:10:24;6.32;;;3.85;;
85056;SDS011;75393;49.516;8.662;2024-03-07T08:12:51;8.75;;;4.32;;
85056;SDS011;75393;49.516;8.662;2024-03-07T08:15:17;8.40;;;3.67;;
85056;SDS011;75393;49.516;8.662;2024-03-07T08:17:42;7.38;;;4.18;;
85056;SDS011;75393;49.516;8.662;2024-03-07T08:20:18;8.52;;;4.45;;
85056;SDS011;75393;49.516;8.662;2024-03-07T08:22:45;8.65;;;4.00;;
85056;SDS011;75393;49.516;8.662;2024-03-07T08:25:12;8.05;;;4.35;;
85056;SDS011;75393;49.516;8.662;2024-03-07T08:27:41;8.20;;;4.43;;
85056;SDS011;75393;49.516;8.662;2024-03-07T08:30:08;7.18;;;4.75;;
85056;SDS011;75393;49.516;8.662;2024-03-07T08:32:41;11.25;;;5.38;;
85056;SDS011;75393;49.516;8.662;2024-03-07T08:35:13;8.45;;;4.35;;
85056;SDS011;75393;49.516;8.662;2024-03-07T08:37:39;7.45;;;4.53;;
85056;SDS011;75393;49.516;8.662;2024-03-07T08:40:05;6.22;;;4.50;;
85056;SDS011;75393;49.516;8.662;2024-03-07T08:42:36;7.38;;;4.35;;
85056;SDS011;75393;49.516;8.662;2024-03-07T08:45:02;8.15;;;4.80;;
85056;SDS011;75393;49.516;8.662;2024-03-07T08:47:32;6.78;;;4.38;;
85056;SDS011;75393;49.516;8.662;2024-03-07T08:49:58;6.82;;;4.32;;
85056;SDS011;75393;49.516;8.662;2024-03-07T08:52:24;8.93;;;4.72;;
85056;SDS011;75393;49.516;8.662;2024-03-07T08:54:50;6.28;;;3.95;;
85056;SDS011;75393;49.516;8.662;2024-03-07T08:57:15;5.75;;;3.70;;
85056;SDS011;75393;49.516;8.662;2024-03-07T08:59:43;6.68;;;4.05;;
85056;SDS011;75393;49.516;8.662;2024-03-07T09:02:09;7.93;;;4.35;;
85056;SDS011;75393;49.516;8.662;2024-03-07T09:04:37;6.47;;;4.70;;
85056;SDS011;75393;49.516;8.662;2024-03-07T09:07:03;5.85;;;4.28;;
85056;SDS011;75393;49.516;8.662;2024-03-07T09:09:29;7.75;;;4.65;;
85056;SDS011;75393;49.516;8.662;2024-03-07T09:11:54;6.28;;;4.18;;
85056;SDS011;75393;49.516;8.662;2024-03-07T09:14:20;5.07;;;3.83;;
85056;SDS011;75393;49.516;8.662;2024-03-07T09:16:45;6.53;;;4.55;;
85056;SDS011;75393;49.516;8.662;2024-03-07T09:19:13;5.45;;;3.53;;
85056;SDS011;75393;49.516;8.662;2024-03-07T09:21:39;6.72;;;4.10;;
85056;SDS011;75393;49.516;8.662;2024-03-07T09:24:05;7.03;;;3.95;;
85056;SDS011;75393;49.516;8.662;2024-03-07T09:26:32;5.93;;;4.18;;
85056;SDS011;75393;49.516;8.662;2024-03-07T09:28:58;4.75;;;3.85;;
85056;SDS011;75393;49.516;8.662;2024-03-07T09:31:30;4.80;;;4.03;;
85056;SDS011;75393;49.516;8.662;2024-03-07T09:33:56;6.32;;;3.70;;
85056;SDS011;75393;49.516;8.662;2024-03-07T09:36:23;6.10;;;3.67;;
85056;SDS011;75393;49.516;8.662;2024-03-07T09:38:51;6.00;;;3.40;;
85056;SDS011;75393;49.516;8.662;2024-03-07T09:41:16;6.13;;;3.70;;
85056;SDS011;75393;49.516;8.662;2024-03-07T09:43:45;4.78;;;3.33;;
85056;SDS011;75393;49.516;8.662;2024-03-07T09:46:12;7.15;;;3.63;;
85056;SDS011;75393;49.516;8.662;2024-03-07T09:48:37;6.30;;;3.85;;
85056;SDS011;75393;49.516;8.662;2024-03-07T09:51:04;7.72;;;4.00;;
85056;SDS011;75393;49.516;8.662;2024-03-07T09:53:30;9.27;;;4.28;;
85056;SDS011;75393;49.516;8.662;2024-03-07T09:55:55;6.10;;;4.22;;
85056;SDS011;75393;49.516;8.662;2024-03-07T09:58:22;6.15;;;4.60;;
85056;SDS011;75393;49.516;8.662;2024-03-07T10:00:49;6.95;;;4.72;;
85056;SDS011;75393;49.516;8.662;2024-03-07T10:03:15;5.50;;;4.07;;
85056;SDS011;75393;49.516;8.662;2024-03-07T10:05:44;7.47;;;5.05;;
85056;SDS011;75393;49.516;8.662;2024-03-07T10:08:09;9.18;;;5.20;;
85056;SDS011;75393;49.516;8.662;2024-03-07T10:10:35;5.88;;;4.50;;
85056;SDS011;75393;49.516;8.662;2024-03-07T10:13:01;5.30;;;4.72;;
85056;SDS011;75393;49.516;8.662;2024-03-07T10:15:31;7.47;;;5.63;;
85056;SDS011;75393;49.516;8.662;2024-03-07T10:17:57;8.43;;;5.47;;
85056;SDS011;75393;49.516;8.662;2024-03-07T10:20:22;10.90;;;5.60;;
85056;SDS011;75393;49.516;8.662;2024-03-07T10:22:49;8.50;;;4.65;;
85056;SDS011;75393;49.516;8.662;2024-03-07T10:25:16;7.55;;;4.63;;
85056;SDS011;75393;49.516;8.662;2024-03-07T10:30:19;7.07;;;4.97;;
85056;SDS011;75393;49.516;8.662;2024-03-07T10:32:47;9.45;;;4.32;;
85056;SDS011;75393;49.516;8.662;2024-03-07T10:35:19;5.03;;;3.85;;
85056;SDS011;75393;49.516;8.662;2024-03-07T10:37:46;4.38;;;3.40;;
85056;SDS011;75393;49.516;8.662;2024-03-07T10:40:13;4.40;;;3.45;;
85056;SDS011;75393;49.516;8.662;2024-03-07T10:42:44;4.63;;;3.38;;
85056;SDS011;75393;49.516;8.662;2024-03-07T10:45:11;3.47;;;2.90;;
85056;SDS011;75393;49.516;8.662;2024-03-07T10:47:37;4.25;;;3.35;;
85056;SDS011;75393;49.516;8.662;2024-03-07T10:50:12;5.40;;;3.88;;
85056;SDS011;75393;49.516;8.662;2024-03-07T10:52:49;5.97;;;3.72;;
85056;SDS011;75393;49.516;8.662;2024-03-07T10:56:06;4.72;;;3.67;;
85056;SDS011;75393;49.516;8.662;2024-03-07T10:58:39;5.97;;;3.88;;
85056;SDS011;75393;49.516;8.662;2024-03-07T11:01:14;5.20;;;3.47;;
85056;SDS011;75393;49.516;8.662;2024-03-07T11:03:41;4.40;;;3.53;;
85056;SDS011;75393;49.516;8.662;2024-03-07T11:06:07;4.20;;;3.80;;
85056;SDS011;75393;49.516;8.662;2024-03-07T11:08:36;6.65;;;4.45;;
85056;SDS011;75393;49.516;8.662;2024-03-07T11:11:02;5.53;;;4.13;;
85056;SDS011;75393;49.516;8.662;2024-03-07T11:13:27;5.80;;;3.53;;
85056;SDS011;75393;49.516;8.662;2024-03-07T11:15:53;4.43;;;3.25;;
85056;SDS011;75393;49.516;8.662;2024-03-07T11:18:22;5.93;;;3.58;;
85056;SDS011;75393;49.516;8.662;2024-03-07T11:20:55;7.00;;;3.35;;
85056;SDS011;75393;49.516;8.662;2024-03-07T11:23:29;5.32;;;3.40;;
85056;SDS011;75393;49.516;8.662;2024-03-07T11:26:09;4.22;;;3.55;;
85056;SDS011;75393;49.516;8.662;2024-03-07T11:28:36;4.05;;;3.08;;
85056;SDS011;75393;49.516;8.662;2024-03-07T11:31:47;4.95;;;3.63;;
85056;SDS011;75393;49.516;8.662;2024-03-07T11:36:47;3.55;;;3.20;;
85056;SDS011;75393;49.516;8.662;2024-03-07T11:42:27;7.20;;;4.22;;
85056;SDS011;75393;49.516;8.662;2024-03-07T11:44:57;6.15;;;3.78;;
85056;SDS011;75393;49.516;8.662;2024-03-07T11:47:23;4.00;;;3.35;;
85056;SDS011;75393;49.516;8.662;2024-03-07T11:49:52;4.00;;;3.22;;
85056;SDS011;75393;49.516;8.662;2024-03-07T11:52:19;6.65;;;4.32;;
85056;SDS011;75393;49.516;8.662;2024-03-07T11:54:44;5.85;;;5.07;;
85056;SDS011;75393;49.516;8.662;2024-03-07T11:57:14;5.32;;;3.90;;
85056;SDS011;75393;49.516;8.662;2024-03-07T11:59:40;5.32;;;4.30;;
85056;SDS011;75393;49.516;8.662;2024-03-07T12:02:10;7.18;;;3.50;;
85056;SDS011;75393;49.516;8.662;2024-03-07T12:04:35;5.63;;;3.88;;
85056;SDS011;75393;49.516;8.662;2024-03-07T12:07:01;7.60;;;4.15;;
85056;SDS011;75393;49.516;8.662;2024-03-07T12:09:26;6.03;;;4.57;;
85056;SDS011;75393;49.516;8.662;2024-03-07T12:11:51;5.75;;;4.63;;
85056;SDS011;75393;49.516;8.662;2024-03-07T12:14:18;4.40;;;4.00;;
85056;SDS011;75393;49.516;8.662;2024-03-07T12:16:44;8.82;;;4.50;;
85056;SDS011;75393;49.516;8.662;2024-03-07T12:19:10;5.80;;;4.50;;
85056;SDS011;75393;49.516;8.662;2024-03-07T12:21:36;4.53;;;3.67;;
85056;SDS011;75393;49.516;8.662;2024-03-07T12:24:13;5.90;;;3.88;;
85056;SDS011;75393;49.516;8.662;2024-03-07T12:26:38;5.05;;;4.00;;
85056;SDS011;75393;49.516;8.662;2024-03-07T12:29:07;4.63;;;3.58;;
85056;SDS011;75393;49.516;8.662;2024-03-07T12:31:36;5.18;;;3.50;;
85056;SDS011;75393;49.516;8.662;2024-03-07T12:34:06;3.95;;;3.55;;
85056;SDS011;75393;49.516;8.662;2024-03-07T12:36:34;5.10;;;3.67;;
85056;SDS011;75393;49.516;8.662;2024-03-07T12:39:01;5.00;;;3.80;;
85056;SDS011;75393;49.516;8.662;2024-03-07T12:41:49;4.72;;;4.07;;
85056;SDS011;75393;49.516;8.662;2024-03-07T12:44:18;4.07;;;3.53;;
85056;SDS011;75393;49.516;8.662;2024-03-07T12:46:46;5.07;;;4.05;;
85056;SDS011;75393;49.516;8.662;2024-03-07T12:49:12;4.25;;;3.13;;
85056;SDS011;75393;49.516;8.662;2024-03-07T12:51:40;5.10;;;3.85;;
85056;SDS011;75393;49.516;8.662;2024-03-07T12:54:06;5.70;;;4.13;;
85056;SDS011;75393;49.516;8.662;2024-03-07T12:56:34;5.95;;;4.40;;
85056;SDS011;75393;49.516;8.662;2024-03-07T12:59:02;5.57;;;4.00;;
85056;SDS011;75393;49.516;8.662;2024-03-07T13:01:34;5.25;;;3.92;;
85056;SDS011;75393;49.516;8.662;2024-03-07T13:04:02;3.97;;;3.10;;
85056;SDS011;75393;49.516;8.662;2024-03-07T13:06:29;6.70;;;3.20;;
85056;SDS011;75393;49.516;8.662;2024-03-07T13:08:55;5.47;;;3.92;;
85056;SDS011;75393;49.516;8.662;2024-03-07T13:11:24;5.63;;;4.03;;
85056;SDS011;75393;49.516;8.662;2024-03-07T13:13:52;4.93;;;4.00;;
85056;SDS011;75393;49.516;8.662;2024-03-07T13:16:18;4.35;;;3.45;;
85056;SDS011;75393;49.516;8.662;2024-03-07T13:18:43;5.43;;;3.15;;
85056;SDS011;75393;49.516;8.662;2024-03-07T13:21:10;7.88;;;4.00;;
85056;SDS011;75393;49.516;8.662;2024-03-07T13:23:36;4.63;;;3.42;;
85056;SDS011;75393;49.516;8.662;2024-03-07T13:26:04;4.82;;;3.88;;
85056;SDS011;75393;49.516;8.662;2024-03-07T13:28:33;4.90;;;3.47;;
85056;SDS011;75393;49.516;8.662;2024-03-07T13:30:59;4.88;;;3.75;;
85056;SDS011;75393;49.516;8.662;2024-03-07T13:33:24;4.65;;;3.40;;
85056;SDS011;75393;49.516;8.662;2024-03-07T13:35:50;5.38;;;3.75;;
85056;SDS011;75393;49.516;8.662;2024-03-07T13:38:17;4.47;;;3.40;;
85056;SDS011;75393;49.516;8.662;2024-03-07T13:40:43;6.30;;;3.80;;
85056;SDS011;75393;49.516;8.662;2024-03-07T13:43:09;5.28;;;3.53;;
85056;SDS011;75393;49.516;8.662;2024-03-07T13:45:35;5.35;;;3.60;;
85056;SDS011;75393;49.516;8.662;2024-03-07T13:48:04;4.80;;;3.53;;
85056;SDS011;75393;49.516;8.662;2024-03-07T13:50:31;5.18;;;3.67;;
85056;SDS011;75393;49.516;8.662;2024-03-07T13:52:57;4.20;;;3.42;;
85056;SDS011;75393;49.516;8.662;2024-03-07T14:04:28;5.35;;;3.55;;
85056;SDS011;75393;49.516;8.662;2024-03-07T14:07:20;7.03;;;3.92;;
85056;SDS011;75393;49.516;8.662;2024-03-07T14:10:13;7.72;;;3.58;;
85056;SDS011;75393;49.516;8.662;2024-03-07T14:29:38;6.63;;;4.18;;
85056;SDS011;75393;49.516;8.662;2024-03-07T14:32:08;6.60;;;4.15;;
85056;SDS011;75393;49.516;8.662;2024-03-07T14:34:38;7.65;;;4.10;;
85056;SDS011;75393;49.516;8.662;2024-03-07T14:37:22;5.60;;;4.18;;
85056;SDS011;75393;49.516;8.662;2024-03-07T14:39:50;5.00;;;3.92;;
85056;SDS011;75393;49.516;8.662;2024-03-07T14:42:16;5.07;;;3.38;;
85056;SDS011;75393;49.516;8.662;2024-03-07T14:44:42;4.75;;;3.22;;
85056;SDS011;75393;49.516;8.662;2024-03-07T14:47:08;6.07;;;4.15;;
85056;SDS011;75393;49.516;8.662;2024-03-07T14:49:36;6.53;;;3.85;;
85056;SDS011;75393;49.516;8.662;2024-03-07T14:52:02;5.75;;;3.63;;
85056;SDS011;75393;49.516;8.662;2024-03-07T14:54:28;4.72;;;3.72;;
85056;SDS011;75393;49.516;8.662;2024-03-07T14:56:53;5.72;;;3.55;;
85056;SDS011;75393;49.516;8.662;2024-03-07T14:59:19;4.63;;;3.70;;
85056;SDS011;75393;49.516;8.662;2024-03-07T15:01:45;6.45;;;3.63;;
85056;SDS011;75393;49.516;8.662;2024-03-07T15:04:12;3.72;;;3.42;;
85056;SDS011;75393;49.516;8.662;2024-03-07T15:06:38;5.72;;;3.45;;
85056;SDS011;75393;49.516;8.662;2024-03-07T15:09:04;4.60;;;3.22;;
85056;SDS011;75393;49.516;8.662;2024-03-07T15:11:35;5.50;;;3.17;;
85056;SDS011;75393;49.516;8.662;2024-03-07T15:14:01;6.10;;;3.33;;
85056;SDS011;75393;49.516;8.662;2024-03-07T15:16:29;4.57;;;3.25;;
85056;SDS011;75393;49.516;8.662;2024-03-07T15:18:59;3.67;;;3.10;;
85056;SDS011;75393;49.516;8.662;2024-03-07T15:21:25;4.45;;;3.33;;
85056;SDS011;75393;49.516;8.662;2024-03-07T15:23:52;5.10;;;3.15;;